createdAt,value
2023-04-05T00:03:31.983Z,5.95
2023-04-05T00:07:34.263Z,5.85
2023-04-05T00:11:35.889Z,5.73
2023-04-05T00:15:37.750Z,5.58
2023-04-05T00:19:39.652Z,5.56
2023-04-05T00:23:41.421Z,5.56
2023-04-05T00:27:46.118Z,5.51
2023-04-05T00:31:47.753Z,5.45
2023-04-05T00:35:49.321Z,5.44
2023-04-05T00:39:51.142Z,5.44
2023-04-05T00:43:52.728Z,5.40
2023-04-05T00:47:55.982Z,5.35
2023-04-05T00:51:58.027Z,5.29
2023-04-05T00:56:01.304Z,5.20
2023-04-05T01:00:09.589Z,5.04
2023-04-05T01:04:11.674Z,4.90
2023-04-05T01:08:29.857Z,4.84
2023-04-05T01:12:34.001Z,4.80
2023-04-05T01:16:35.560Z,4.84
2023-04-05T01:20:40.896Z,4.72
2023-04-05T01:24:57.504Z,4.62
2023-04-05T01:29:32.059Z,4.67
2023-04-05T01:33:55.764Z,4.69
2023-04-05T01:38:02.376Z,4.67
2023-04-05T01:42:04.506Z,4.61
2023-04-05T01:46:06.322Z,4.56
2023-04-05T01:50:08.909Z,4.44
2023-04-05T01:54:10.530Z,4.43
2023-04-05T01:58:12.122Z,4.39
2023-04-05T02:02:13.633Z,4.32
2023-04-05T02:06:15.274Z,4.21
2023-04-05T02:10:18.331Z,4.25
2023-04-05T02:14:20.010Z,4.18
2023-04-05T02:18:30.086Z,4.20
2023-04-05T02:22:31.868Z,4.17
2023-04-05T02:26:33.492Z,4.14
2023-04-05T02:30:35.186Z,4.06
2023-04-05T02:34:41.217Z,3.99
2023-04-05T02:38:42.870Z,3.96
2023-04-05T02:42:44.569Z,3.93
2023-04-05T02:46:46.146Z,3.92
2023-04-05T02:50:52.697Z,3.81
2023-04-05T02:54:54.406Z,3.81
2023-04-05T02:59:01.326Z,3.72
2023-04-05T03:03:03.096Z,3.64
2023-04-05T03:07:05.132Z,3.59
2023-04-05T03:11:11.089Z,3.56
2023-04-05T03:15:14.263Z,3.56
2023-04-05T03:19:22.315Z,3.52
2023-04-05T03:23:31.284Z,3.49
2023-04-05T03:27:33.532Z,3.46
2023-04-05T03:31:47.254Z,3.50
2023-04-05T03:35:54.602Z,3.52
2023-04-05T03:39:57.061Z,3.49
2023-04-05T03:43:59.264Z,3.42
2023-04-05T03:48:01.251Z,3.37
2023-04-05T03:52:03.033Z,3.25
2023-04-05T03:56:05.002Z,3.25
2023-04-05T04:00:17.830Z,3.25
2023-04-05T04:04:33.057Z,3.22
2023-04-05T04:08:34.822Z,3.15
2023-04-05T04:12:37.291Z,3.17
2023-04-05T04:16:38.896Z,3.17
2023-04-05T04:20:52.413Z,3.16
2023-04-05T04:25:10.933Z,3.08
2023-04-05T04:29:48.155Z,3.07
2023-04-05T04:34:18.763Z,3.02
2023-04-05T04:38:38.165Z,3.02
2023-04-05T04:43:00.049Z,2.97
2023-04-05T04:47:21.497Z,2.98
2023-04-05T04:51:39.561Z,2.98
2023-04-05T04:55:43.892Z,2.90
2023-04-05T04:59:45.478Z,2.89
2023-04-05T05:03:47.085Z,2.89
2023-04-05T05:07:54.037Z,2.80
2023-04-05T05:11:59.030Z,2.81
2023-04-05T05:16:01.798Z,2.79
2023-04-05T05:20:10.656Z,2.77
2023-04-05T05:24:14.306Z,2.73
2023-04-05T05:28:16.767Z,2.76
2023-04-05T05:32:18.378Z,2.77
2023-04-05T05:36:20.232Z,2.79
2023-04-05T05:40:21.831Z,2.73
2023-04-05T05:44:23.418Z,2.76
2023-04-05T05:48:24.965Z,2.76
2023-04-05T05:52:26.731Z,2.73
2023-04-05T05:56:28.744Z,2.71
2023-04-05T06:00:30.388Z,2.73
2023-04-05T06:04:32.006Z,2.73
2023-04-05T06:08:33.960Z,2.81
2023-04-05T06:12:35.717Z,2.81
2023-04-05T06:16:37.349Z,2.81
2023-04-05T06:20:41.259Z,2.77
2023-04-05T06:24:43.093Z,2.74
2023-04-05T06:28:47.900Z,2.83
2023-04-05T06:32:54.280Z,2.94
2023-04-05T06:36:56.259Z,2.97
2023-04-05T06:40:57.785Z,3.01
2023-04-05T06:44:59.350Z,3.07
2023-04-05T06:49:03.563Z,3.08
2023-04-05T06:53:05.681Z,3.12
2023-04-05T06:57:07.220Z,3.19
2023-04-05T07:01:08.925Z,3.30
2023-04-05T07:05:11.569Z,3.37
2023-04-05T07:09:13.156Z,3.45
2023-04-05T07:13:14.793Z,3.54
2023-04-05T07:17:16.420Z,3.67
2023-04-05T07:21:17.985Z,3.78
2023-04-05T07:25:19.591Z,3.89
2023-04-05T07:29:21.143Z,4.00
2023-04-05T07:33:22.802Z,4.13
2023-04-05T07:37:24.395Z,4.21
2023-04-05T07:41:27.989Z,4.32
2023-04-05T07:45:29.763Z,4.43
2023-04-05T07:49:31.394Z,4.54
2023-04-05T07:53:33.336Z,4.65
2023-04-05T07:57:34.972Z,4.74
2023-04-05T08:01:36.472Z,4.86
2023-04-05T08:05:38.104Z,4.96
2023-04-05T08:09:39.640Z,5.04
2023-04-05T08:13:41.821Z,5.12
2023-04-05T08:17:43.554Z,5.30
2023-04-05T08:21:45.495Z,5.44
2023-04-05T08:25:47.440Z,5.51
2023-04-05T08:29:48.970Z,5.65
2023-04-05T08:33:50.479Z,5.83
2023-04-05T08:37:52.159Z,5.95
2023-04-05T08:42:18.929Z,6.08
2023-04-05T08:46:21.921Z,6.17
2023-04-05T08:50:24.478Z,6.28
2023-04-05T08:54:26.080Z,6.33
2023-04-05T08:58:28.983Z,6.46
2023-04-05T09:02:31.185Z,6.53
2023-04-05T09:06:35.499Z,6.71
2023-04-05T09:10:37.154Z,6.82
2023-04-05T09:14:39.710Z,7.01
2023-04-05T09:18:43.069Z,7.18
2023-04-05T09:22:47.250Z,7.27
2023-04-05T09:27:03.764Z,7.23
2023-04-05T09:31:05.492Z,7.33
2023-04-05T09:35:07.468Z,7.45
2023-04-05T09:39:10.788Z,7.58
2023-04-05T09:43:13.842Z,7.77
2023-04-05T09:47:17.577Z,7.91
2023-04-05T09:51:19.444Z,7.95
2023-04-05T09:55:28.571Z,7.99
2023-04-05T09:59:31.354Z,8.12
2023-04-05T10:03:46.713Z,8.21
2023-04-05T10:07:48.551Z,8.31
2023-04-05T10:11:50.393Z,8.46
2023-04-05T10:15:54.583Z,8.58
2023-04-05T10:19:58.798Z,8.73
2023-04-05T10:24:09.837Z,8.88
2023-04-05T10:28:33.936Z,9.01
2023-04-05T10:33:00.283Z,9.10
2023-04-05T10:37:02.608Z,9.20
2023-04-05T10:41:14.553Z,9.30
2023-04-05T10:45:19.521Z,9.35
2023-04-05T10:49:37.040Z,9.44
2023-04-05T10:53:39.595Z,9.50
2023-04-05T10:57:42.743Z,9.63
2023-04-05T11:01:46.414Z,9.74
2023-04-05T11:05:48.117Z,9.81
2023-04-05T11:09:57.033Z,9.78
2023-04-05T11:13:59.154Z,9.89
2023-04-05T11:18:11.809Z,10.02
2023-04-05T11:22:24.124Z,10.02
2023-04-05T11:26:31.614Z,9.99
2023-04-05T11:30:51.582Z,10.09
2023-04-05T11:35:25.715Z,10.31
2023-04-05T11:39:28.296Z,10.49
2023-04-05T11:43:30.170Z,10.57
2023-04-05T11:47:31.824Z,10.66
2023-04-05T11:51:33.892Z,10.76
2023-04-05T11:55:35.854Z,10.80
2023-04-05T11:59:37.352Z,10.98
2023-04-05T12:03:38.990Z,11.12
2023-04-05T12:07:40.751Z,11.21
2023-04-05T12:11:42.385Z,11.31
2023-04-05T12:15:46.664Z,11.33
2023-04-05T12:19:48.385Z,11.21
2023-04-05T12:23:51.622Z,11.45
2023-04-05T12:27:53.413Z,11.59
2023-04-05T12:31:55.368Z,11.59
2023-04-05T12:35:57.839Z,11.82
2023-04-05T12:40:03.053Z,11.84
2023-04-05T12:44:27.927Z,12.11
2023-04-05T12:48:29.448Z,12.33
2023-04-05T12:52:30.994Z,12.37
2023-04-05T12:56:32.561Z,12.34
2023-04-05T13:00:36.469Z,12.46
2023-04-05T13:04:37.982Z,12.58
2023-04-05T13:08:39.582Z,12.70
2023-04-05T13:12:41.201Z,12.77
2023-04-05T13:16:42.835Z,12.69
2023-04-05T13:20:45.580Z,12.61
2023-04-05T13:24:47.142Z,12.88
2023-04-05T13:28:48.739Z,12.87
2023-04-05T13:32:50.442Z,13.04
2023-04-05T13:36:52.004Z,13.03
2023-04-05T13:40:53.571Z,13.12
2023-04-05T13:44:55.261Z,13.04
2023-04-05T13:48:56.791Z,13.12
2023-04-05T13:52:58.404Z,13.19
2023-04-05T13:56:59.984Z,13.24
2023-04-05T14:01:03.069Z,13.44
2023-04-05T14:05:05.996Z,13.17
2023-04-05T14:09:08.447Z,13.28
2023-04-05T14:13:12.084Z,13.61
2023-04-05T14:17:13.635Z,13.73
2023-04-05T14:21:15.442Z,13.80
2023-04-05T14:25:17.154Z,13.94
2023-04-05T14:29:19.373Z,14.13
2023-04-05T14:33:21.025Z,14.23
2023-04-05T14:37:22.616Z,14.45
2023-04-05T14:41:24.775Z,14.53
2023-04-05T14:45:29.670Z,14.16
2023-04-05T14:49:31.247Z,14.02
2023-04-05T14:53:32.937Z,14.12
2023-04-05T14:57:34.698Z,14.27
2023-04-05T15:05:38.835Z,14.79
2023-04-05T15:09:40.384Z,14.85
2023-04-05T15:13:42.017Z,14.94
2023-04-05T15:17:43.766Z,14.85
2023-04-05T15:21:45.845Z,14.80
2023-04-05T15:25:47.528Z,14.66
2023-04-05T15:29:49.076Z,14.64
2023-04-05T15:33:50.766Z,14.60
2023-04-05T15:37:52.335Z,14.71
2023-04-05T15:41:56.579Z,14.57
2023-04-05T15:45:58.160Z,14.61
2023-04-05T15:49:59.776Z,14.66
2023-04-05T15:54:01.570Z,14.78
2023-04-05T15:58:03.383Z,14.74
2023-04-05T16:02:05.484Z,14.52
2023-04-05T16:06:07.448Z,14.64
2023-04-05T16:10:09.621Z,14.59
2023-04-05T16:14:11.780Z,14.39
2023-04-05T16:18:14.465Z,14.24
2023-04-05T16:22:16.264Z,14.16
2023-04-05T16:26:18.039Z,14.17
2023-04-05T16:30:20.097Z,14.08
2023-04-05T16:34:22.685Z,13.94
2023-04-05T16:38:24.451Z,13.87
2023-04-05T16:42:26.228Z,13.83
2023-04-05T16:46:30.741Z,13.76
2023-04-05T16:50:32.944Z,13.66
2023-04-05T16:54:34.519Z,13.46
2023-04-05T16:58:36.080Z,13.31
2023-04-05T17:02:37.862Z,13.16
2023-04-05T17:06:39.572Z,12.96
2023-04-05T17:10:41.436Z,12.91
2023-04-05T17:14:43.084Z,12.80
2023-04-05T17:18:44.828Z,12.67
2023-04-05T17:22:46.508Z,12.52
2023-04-05T17:26:48.058Z,12.36
2023-04-05T17:30:49.712Z,12.13
2023-04-05T17:34:51.554Z,11.93
2023-04-05T17:38:53.659Z,11.74
2023-04-05T17:42:55.253Z,11.62
2023-04-05T17:47:07.848Z,11.49
2023-04-05T17:51:10.644Z,11.38
2023-04-05T17:55:12.434Z,11.24
2023-04-05T17:59:14.041Z,11.11
2023-04-05T18:03:17.877Z,11.01
2023-04-05T18:07:19.964Z,10.93
2023-04-05T18:11:21.647Z,10.87
2023-04-05T18:15:23.401Z,10.80
2023-04-05T18:19:25.164Z,10.73
2023-04-05T18:23:27.192Z,10.65
2023-04-05T18:27:30.253Z,10.55
2023-04-05T18:31:31.965Z,10.43
2023-04-05T18:35:33.702Z,10.35
2023-04-05T18:39:35.394Z,10.28
2023-04-05T18:43:37.064Z,10.20
2023-04-05T18:47:39.051Z,10.13
2023-04-05T18:51:40.778Z,10.06
2023-04-05T18:55:42.359Z,10.02
2023-04-05T18:59:44.068Z,9.98
2023-04-05T19:03:46.629Z,9.91
2023-04-05T19:07:48.214Z,9.83
2023-04-05T19:11:50.227Z,9.77
2023-04-05T19:15:53.095Z,9.70
2023-04-05T19:19:54.776Z,9.63
2023-04-05T19:23:57.547Z,9.53
2023-04-05T19:27:59.210Z,9.40
2023-04-05T19:32:00.996Z,9.30
2023-04-05T19:36:02.694Z,9.24
2023-04-05T19:40:06.185Z,9.17
2023-04-05T19:44:11.912Z,9.08
2023-04-05T19:48:39.704Z,9.00
2023-04-05T19:52:47.332Z,8.96
2023-04-05T19:56:48.972Z,8.91
2023-04-05T20:00:52.788Z,8.83
2023-04-05T20:04:54.487Z,8.73
2023-04-05T20:09:03.633Z,8.70
2023-04-05T20:13:07.069Z,8.64
2023-04-05T20:17:09.295Z,8.60
2023-04-05T20:21:11.649Z,8.54
2023-04-05T20:25:39.528Z,8.39
2023-04-05T20:29:41.887Z,8.24
2023-04-05T20:33:47.726Z,8.20
2023-04-05T20:37:50.707Z,8.14
2023-04-05T20:41:52.862Z,8.13
2023-04-05T20:45:55.588Z,8.06
2023-04-05T20:49:57.228Z,8.04
2023-04-05T20:53:58.865Z,8.00
2023-04-05T20:58:00.843Z,7.94
2023-04-05T21:02:02.587Z,7.91
2023-04-05T21:06:08.091Z,7.85
2023-04-05T21:10:10.082Z,7.76
2023-04-05T21:14:12.009Z,7.63
2023-04-05T21:18:13.612Z,7.42
2023-04-05T21:22:15.342Z,7.36
2023-04-05T21:26:16.919Z,7.27
2023-04-05T21:30:18.704Z,7.30
2023-04-05T21:34:20.412Z,7.29
2023-04-05T21:38:22.049Z,7.30
2023-04-05T21:42:23.585Z,7.27
2023-04-05T21:46:25.277Z,7.29
2023-04-05T21:50:26.903Z,7.27
2023-04-05T21:54:28.494Z,7.24
2023-04-05T21:58:30.454Z,7.18
2023-04-05T22:02:32.245Z,7.21
2023-04-05T22:06:33.921Z,7.18
2023-04-05T22:10:35.825Z,7.11
2023-04-05T22:14:37.509Z,7.05
2023-04-05T22:18:39.149Z,7.01
2023-04-05T22:22:40.921Z,6.99
2023-04-05T22:26:42.695Z,6.93
2023-04-05T22:30:44.641Z,6.86
2023-04-05T22:34:46.295Z,6.83
2023-04-05T22:38:47.862Z,6.79
2023-04-05T22:42:49.439Z,6.76
2023-04-05T22:46:51.147Z,6.75
2023-04-05T22:50:52.822Z,6.76
2023-04-05T22:54:54.391Z,6.69
2023-04-05T22:58:55.971Z,6.64
2023-04-05T23:02:57.765Z,6.64
2023-04-05T23:06:59.371Z,6.63
2023-04-05T23:11:01.129Z,6.58
2023-04-05T23:15:03.003Z,6.54
2023-04-05T23:19:04.576Z,6.53
2023-04-05T23:23:06.186Z,6.53
2023-04-05T23:27:07.738Z,6.53
2023-04-05T23:31:09.310Z,6.43
2023-04-05T23:35:11.002Z,6.42
2023-04-05T23:39:13.514Z,6.36
2023-04-05T23:43:15.539Z,6.35
2023-04-05T23:47:17.189Z,6.27
2023-04-05T23:51:18.795Z,6.16
2023-04-05T23:55:21.480Z,6.03
2023-04-05T23:59:23.242Z,5.95
